sensor_id;sensor_type;location;lat;lon;timestamp;P1;durP1;ratioP1;P2;durP2;ratioP2
45684;SDS011;46836;48.388;16.210;2022-10-26T00:02:12;7.85;;;6.25;;
45684;SDS011;46836;48.388;16.210;2022-10-26T00:04:39;6.25;;;5.65;;
45684;SDS011;46836;48.388;16.210;2022-10-26T00:07:06;10.60;;;6.80;;
45684;SDS011;46836;48.388;16.210;2022-10-26T00:09:33;7.10;;;6.05;;
45684;SDS011;46836;48.388;16.210;2022-10-26T00:12:00;14.73;;;6.30;;
45684;SDS011;46836;48.388;16.210;2022-10-26T00:14:28;9.05;;;6.15;;
45684;SDS011;46836;48.388;16.210;2022-10-26T00:16:55;7.88;;;6.18;;
45684;SDS011;46836;48.388;16.210;2022-10-26T00:19:22;8.82;;;6.38;;
45684;SDS011;46836;48.388;16.210;2022-10-26T00:21:49;11.30;;;6.82;;
45684;SDS011;46836;48.388;16.210;2022-10-26T00:24:18;8.73;;;7.72;;
45684;SDS011;46836;48.388;16.210;2022-10-26T00:26:46;8.95;;;7.28;;
45684;SDS011;46836;48.388;16.210;2022-10-26T00:29:13;10.10;;;7.28;;
45684;SDS011;46836;48.388;16.210;2022-10-26T00:31:40;7.93;;;6.57;;
45684;SDS011;46836;48.388;16.210;2022-10-26T00:34:08;11.20;;;7.53;;
45684;SDS011;46836;48.388;16.210;2022-10-26T00:36:36;8.65;;;6.65;;
45684;SDS011;46836;48.388;16.210;2022-10-26T00:39:03;10.23;;;6.55;;
45684;SDS011;46836;48.388;16.210;2022-10-26T00:41:31;11.00;;;7.18;;
45684;SDS011;46836;48.388;16.210;2022-10-26T00:43:59;9.60;;;6.95;;
45684;SDS011;46836;48.388;16.210;2022-10-26T00:46:27;8.70;;;6.90;;
45684;SDS011;46836;48.388;16.210;2022-10-26T00:48:59;10.95;;;7.63;;
45684;SDS011;46836;48.388;16.210;2022-10-26T00:51:34;12.15;;;6.60;;
45684;SDS011;46836;48.388;16.210;2022-10-26T00:54:16;7.32;;;5.60;;
45684;SDS011;46836;48.388;16.210;2022-10-26T00:56:45;8.95;;;6.35;;
45684;SDS011;46836;48.388;16.210;2022-10-26T00:59:14;9.15;;;6.22;;
45684;SDS011;46836;48.388;16.210;2022-10-26T01:01:43;12.55;;;7.30;;
45684;SDS011;46836;48.388;16.210;2022-10-26T01:04:12;9.23;;;5.95;;
45684;SDS011;46836;48.388;16.210;2022-10-26T01:06:40;9.90;;;6.20;;
45684;SDS011;46836;48.388;16.210;2022-10-26T01:09:08;13.25;;;6.53;;
45684;SDS011;46836;48.388;16.210;2022-10-26T01:11:36;8.85;;;5.70;;
45684;SDS011;46836;48.388;16.210;2022-10-26T01:14:04;13.63;;;7.35;;
45684;SDS011;46836;48.388;16.210;2022-10-26T01:27:23;7.03;;;4.53;;
45684;SDS011;46836;48.388;16.210;2022-10-26T01:41:57;5.57;;;4.32;;
45684;SDS011;46836;48.388;16.210;2022-10-26T01:44:30;7.57;;;4.53;;
45684;SDS011;46836;48.388;16.210;2022-10-26T01:47:11;4.13;;;3.72;;
45684;SDS011;46836;48.388;16.210;2022-10-26T01:49:45;4.60;;;4.07;;
45684;SDS011;46836;48.388;16.210;2022-10-26T01:52:17;5.53;;;4.35;;
45684;SDS011;46836;48.388;16.210;2022-10-26T01:54:44;6.32;;;5.07;;
45684;SDS011;46836;48.388;16.210;2022-10-26T01:57:13;7.78;;;4.88;;
45684;SDS011;46836;48.388;16.210;2022-10-26T01:59:57;4.82;;;4.15;;
45684;SDS011;46836;48.388;16.210;2022-10-26T02:08:11;5.75;;;5.13;;
45684;SDS011;46836;48.388;16.210;2022-10-26T02:14:16;4.63;;;4.20;;
45684;SDS011;46836;48.388;16.210;2022-10-26T02:16:48;5.20;;;4.10;;
45684;SDS011;46836;48.388;16.210;2022-10-26T02:22:01;7.50;;;4.90;;
45684;SDS011;46836;48.388;16.210;2022-10-26T02:24:51;6.63;;;4.32;;
45684;SDS011;46836;48.388;16.210;2022-10-26T02:27:20;5.00;;;4.35;;
45684;SDS011;46836;48.388;16.210;2022-10-26T02:29:51;6.15;;;4.30;;
45684;SDS011;46836;48.388;16.210;2022-10-26T02:32:21;7.35;;;4.95;;
45684;SDS011;46836;48.388;16.210;2022-10-26T02:34:51;9.88;;;4.97;;
45684;SDS011;46836;48.388;16.210;2022-10-26T02:37:22;4.65;;;3.70;;
45684;SDS011;46836;48.388;16.210;2022-10-26T02:39:51;8.65;;;5.13;;
45684;SDS011;46836;48.388;16.210;2022-10-26T02:42:19;5.30;;;4.25;;
45684;SDS011;46836;48.388;16.210;2022-10-26T02:47:19;4.65;;;3.92;;
45684;SDS011;46836;48.388;16.210;2022-10-26T02:49:47;9.23;;;4.80;;
45684;SDS011;46836;48.388;16.210;2022-10-26T02:55:33;4.30;;;3.90;;
45684;SDS011;46836;48.388;16.210;2022-10-26T02:57:59;4.35;;;3.95;;
45684;SDS011;46836;48.388;16.210;2022-10-26T03:00:30;4.22;;;3.80;;
45684;SDS011;46836;48.388;16.210;2022-10-26T03:02:58;5.95;;;3.88;;
45684;SDS011;46836;48.388;16.210;2022-10-26T03:05:29;5.57;;;4.32;;
45684;SDS011;46836;48.388;16.210;2022-10-26T03:07:58;5.10;;;4.60;;
45684;SDS011;46836;48.388;16.210;2022-10-26T03:10:26;4.80;;;4.10;;
45684;SDS011;46836;48.388;16.210;2022-10-26T03:12:53;9.50;;;4.00;;
45684;SDS011;46836;48.388;16.210;2022-10-26T03:15:20;7.70;;;4.13;;
45684;SDS011;46836;48.388;16.210;2022-10-26T03:17:47;5.47;;;4.70;;
45684;SDS011;46836;48.388;16.210;2022-10-26T03:20:14;6.53;;;4.18;;
45684;SDS011;46836;48.388;16.210;2022-10-26T03:22:42;9.55;;;5.45;;
45684;SDS011;46836;48.388;16.210;2022-10-26T03:25:09;8.88;;;5.20;;
45684;SDS011;46836;48.388;16.210;2022-10-26T03:27:36;5.53;;;4.90;;
45684;SDS011;46836;48.388;16.210;2022-10-26T03:30:03;5.28;;;4.78;;
45684;SDS011;46836;48.388;16.210;2022-10-26T03:32:31;7.07;;;5.85;;
45684;SDS011;46836;48.388;16.210;2022-10-26T03:34:58;7.75;;;5.07;;
45684;SDS011;46836;48.388;16.210;2022-10-26T03:37:25;8.43;;;5.18;;
45684;SDS011;46836;48.388;16.210;2022-10-26T03:39:52;15.25;;;5.57;;
45684;SDS011;46836;48.388;16.210;2022-10-26T03:42:19;6.35;;;4.75;;
45684;SDS011;46836;48.388;16.210;2022-10-26T03:44:46;6.68;;;5.10;;
45684;SDS011;46836;48.388;16.210;2022-10-26T03:47:13;8.27;;;4.78;;
45684;SDS011;46836;48.388;16.210;2022-10-26T03:49:40;6.50;;;5.10;;
45684;SDS011;46836;48.388;16.210;2022-10-26T03:52:07;5.80;;;4.45;;
45684;SDS011;46836;48.388;16.210;2022-10-26T03:54:34;21.58;;;5.95;;
45684;SDS011;46836;48.388;16.210;2022-10-26T03:57:01;11.98;;;5.47;;
45684;SDS011;46836;48.388;16.210;2022-10-26T03:59:28;13.43;;;5.72;;
45684;SDS011;46836;48.388;16.210;2022-10-26T04:01:55;7.38;;;5.60;;
45684;SDS011;46836;48.388;16.210;2022-10-26T04:04:23;7.78;;;5.57;;
45684;SDS011;46836;48.388;16.210;2022-10-26T04:06:51;11.00;;;5.30;;
45684;SDS011;46836;48.388;16.210;2022-10-26T04:09:18;10.52;;;5.32;;
45684;SDS011;46836;48.388;16.210;2022-10-26T04:11:45;12.35;;;5.90;;
45684;SDS011;46836;48.388;16.210;2022-10-26T04:14:12;7.22;;;5.72;;
45684;SDS011;46836;48.388;16.210;2022-10-26T04:16:39;5.78;;;5.18;;
45684;SDS011;46836;48.388;16.210;2022-10-26T04:19:06;7.80;;;6.00;;
45684;SDS011;46836;48.388;16.210;2022-10-26T04:21:33;8.15;;;6.10;;
45684;SDS011;46836;48.388;16.210;2022-10-26T04:24:00;8.27;;;6.30;;
45684;SDS011;46836;48.388;16.210;2022-10-26T04:26:28;10.60;;;6.32;;
45684;SDS011;46836;48.388;16.210;2022-10-26T04:28:56;9.20;;;5.43;;
45684;SDS011;46836;48.388;16.210;2022-10-26T04:31:23;7.13;;;6.32;;
45684;SDS011;46836;48.388;16.210;2022-10-26T04:33:50;7.50;;;5.70;;
45684;SDS011;46836;48.388;16.210;2022-10-26T04:36:17;7.90;;;5.22;;
45684;SDS011;46836;48.388;16.210;2022-10-26T04:38:44;7.40;;;5.40;;
45684;SDS011;46836;48.388;16.210;2022-10-26T04:41:13;7.82;;;5.20;;
45684;SDS011;46836;48.388;16.210;2022-10-26T04:43:40;8.82;;;5.70;;
45684;SDS011;46836;48.388;16.210;2022-10-26T04:46:07;10.25;;;6.22;;
45684;SDS011;46836;48.388;16.210;2022-10-26T04:48:38;5.75;;;4.43;;
45684;SDS011;46836;48.388;16.210;2022-10-26T04:51:06;14.57;;;7.00;;
45684;SDS011;46836;48.388;16.210;2022-10-26T04:53:33;9.13;;;5.32;;
45684;SDS011;46836;48.388;16.210;2022-10-26T04:56:00;11.15;;;5.63;;
45684;SDS011;46836;48.388;16.210;2022-10-26T04:58:27;5.93;;;5.32;;
45684;SDS011;46836;48.388;16.210;2022-10-26T05:00:54;8.82;;;7.18;;
45684;SDS011;46836;48.388;16.210;2022-10-26T05:03:22;8.93;;;6.15;;
45684;SDS011;46836;48.388;16.210;2022-10-26T05:05:49;16.08;;;6.75;;
45684;SDS011;46836;48.388;16.210;2022-10-26T05:08:16;15.43;;;6.90;;
45684;SDS011;46836;48.388;16.210;2022-10-26T05:10:46;11.32;;;6.88;;
45684;SDS011;46836;48.388;16.210;2022-10-26T05:13:15;7.25;;;6.50;;
45684;SDS011;46836;48.388;16.210;2022-10-26T05:15:42;16.45;;;7.70;;
45684;SDS011;46836;48.388;16.210;2022-10-26T05:18:09;10.55;;;7.13;;
45684;SDS011;46836;48.388;16.210;2022-10-26T05:20:36;11.63;;;7.47;;
45684;SDS011;46836;48.388;16.210;2022-10-26T05:23:04;8.00;;;7.18;;
45684;SDS011;46836;48.388;16.210;2022-10-26T05:25:34;8.73;;;6.65;;
45684;SDS011;46836;48.388;16.210;2022-10-26T05:28:04;10.75;;;7.43;;
45684;SDS011;46836;48.388;16.210;2022-10-26T05:30:33;8.45;;;6.45;;
45684;SDS011;46836;48.388;16.210;2022-10-26T05:33:01;6.53;;;5.82;;
45684;SDS011;46836;48.388;16.210;2022-10-26T05:35:32;10.55;;;5.57;;
45684;SDS011;46836;48.388;16.210;2022-10-26T05:38:05;8.75;;;5.13;;
45684;SDS011;46836;48.388;16.210;2022-10-26T05:40:36;7.00;;;4.95;;
45684;SDS011;46836;48.388;16.210;2022-10-26T05:43:03;7.20;;;5.18;;
45684;SDS011;46836;48.388;16.210;2022-10-26T05:45:31;5.78;;;4.60;;
45684;SDS011;46836;48.388;16.210;2022-10-26T05:47:58;6.28;;;5.40;;
45684;SDS011;46836;48.388;16.210;2022-10-26T05:50:28;7.45;;;5.88;;
45684;SDS011;46836;48.388;16.210;2022-10-26T05:52:55;6.18;;;5.57;;
45684;SDS011;46836;48.388;16.210;2022-10-26T05:55:22;5.95;;;4.85;;
45684;SDS011;46836;48.388;16.210;2022-10-26T05:57:49;7.85;;;5.78;;
45684;SDS011;46836;48.388;16.210;2022-10-26T06:00:18;12.77;;;6.13;;
45684;SDS011;46836;48.388;16.210;2022-10-26T06:05:36;6.75;;;5.47;;
45684;SDS011;46836;48.388;16.210;2022-10-26T06:08:11;6.75;;;5.25;;
45684;SDS011;46836;48.388;16.210;2022-10-26T06:10:39;10.45;;;5.25;;
45684;SDS011;46836;48.388;16.210;2022-10-26T06:13:06;7.25;;;5.20;;
45684;SDS011;46836;48.388;16.210;2022-10-26T06:15:36;9.20;;;6.13;;
45684;SDS011;46836;48.388;16.210;2022-10-26T06:18:20;10.27;;;6.32;;
45684;SDS011;46836;48.388;16.210;2022-10-26T06:24:07;6.38;;;5.55;;
45684;SDS011;46836;48.388;16.210;2022-10-26T06:29:47;9.95;;;8.05;;
45684;SDS011;46836;48.388;16.210;2022-10-26T06:32:32;8.00;;;6.65;;
45684;SDS011;46836;48.388;16.210;2022-10-26T06:35:12;9.23;;;6.63;;
45684;SDS011;46836;48.388;16.210;2022-10-26T06:37:41;6.85;;;6.15;;
45684;SDS011;46836;48.388;16.210;2022-10-26T06:40:14;6.60;;;5.95;;
45684;SDS011;46836;48.388;16.210;2022-10-26T06:42:42;7.68;;;5.82;;
45684;SDS011;46836;48.388;16.210;2022-10-26T06:45:11;6.72;;;6.05;;
45684;SDS011;46836;48.388;16.210;2022-10-26T06:50:22;6.28;;;5.68;;
45684;SDS011;46836;48.388;16.210;2022-10-26T06:53:15;6.97;;;5.88;;
45684;SDS011;46836;48.388;16.210;2022-10-26T06:55:51;8.48;;;6.55;;
45684;SDS011;46836;48.388;16.210;2022-10-26T06:58:19;6.60;;;5.90;;
45684;SDS011;46836;48.388;16.210;2022-10-26T07:00:50;7.00;;;6.30;;
45684;SDS011;46836;48.388;16.210;2022-10-26T07:03:19;7.00;;;6.20;;
45684;SDS011;46836;48.388;16.210;2022-10-26T07:05:46;6.25;;;5.65;;
45684;SDS011;46836;48.388;16.210;2022-10-26T07:08:13;7.10;;;6.40;;
45684;SDS011;46836;48.388;16.210;2022-10-26T07:10:40;7.20;;;6.50;;
45684;SDS011;46836;48.388;16.210;2022-10-26T07:13:09;6.72;;;6.13;;
45684;SDS011;46836;48.388;16.210;2022-10-26T07:15:37;8.02;;;6.57;;
45684;SDS011;46836;48.388;16.210;2022-10-26T07:18:06;8.10;;;6.00;;
45684;SDS011;46836;48.388;16.210;2022-10-26T07:20:37;8.40;;;6.40;;
45684;SDS011;46836;48.388;16.210;2022-10-26T07:23:06;9.52;;;8.02;;
45684;SDS011;46836;48.388;16.210;2022-10-26T07:25:36;10.02;;;7.75;;
45684;SDS011;46836;48.388;16.210;2022-10-26T07:28:07;9.55;;;6.95;;
45684;SDS011;46836;48.388;16.210;2022-10-26T07:30:36;8.45;;;7.63;;
45684;SDS011;46836;48.388;16.210;2022-10-26T07:33:08;9.82;;;7.68;;
45684;SDS011;46836;48.388;16.210;2022-10-26T07:35:38;9.85;;;8.23;;
45684;SDS011;46836;48.388;16.210;2022-10-26T07:38:05;10.10;;;8.13;;
45684;SDS011;46836;48.388;16.210;2022-10-26T07:40:33;10.85;;;8.40;;
45684;SDS011;46836;48.388;16.210;2022-10-26T07:43:01;10.15;;;8.30;;
45684;SDS011;46836;48.388;16.210;2022-10-26T07:45:29;7.80;;;7.00;;
45684;SDS011;46836;48.388;16.210;2022-10-26T07:47:56;9.02;;;8.13;;
45684;SDS011;46836;48.388;16.210;2022-10-26T07:50:23;10.00;;;7.15;;
45684;SDS011;46836;48.388;16.210;2022-10-26T07:52:51;9.27;;;8.05;;
45684;SDS011;46836;48.388;16.210;2022-10-26T07:55:18;10.02;;;7.35;;
45684;SDS011;46836;48.388;16.210;2022-10-26T07:57:45;9.88;;;7.30;;
45684;SDS011;46836;48.388;16.210;2022-10-26T08:00:19;8.55;;;7.57;;
45684;SDS011;46836;48.388;16.210;2022-10-26T08:02:46;7.57;;;6.78;;
45684;SDS011;46836;48.388;16.210;2022-10-26T08:05:13;8.20;;;7.38;;
45684;SDS011;46836;48.388;16.210;2022-10-26T08:07:40;7.90;;;7.10;;
45684;SDS011;46836;48.388;16.210;2022-10-26T08:10:09;9.65;;;8.05;;
45684;SDS011;46836;48.388;16.210;2022-10-26T08:12:38;11.70;;;9.25;;
45684;SDS011;46836;48.388;16.210;2022-10-26T08:15:05;8.38;;;7.55;;
45684;SDS011;46836;48.388;16.210;2022-10-26T08:17:33;8.45;;;7.35;;
45684;SDS011;46836;48.388;16.210;2022-10-26T08:20:00;9.73;;;7.72;;
45684;SDS011;46836;48.388;16.210;2022-10-26T08:22:27;9.25;;;7.90;;
45684;SDS011;46836;48.388;16.210;2022-10-26T08:24:56;10.23;;;7.60;;
45684;SDS011;46836;48.388;16.210;2022-10-26T08:27:23;7.80;;;7.03;;
45684;SDS011;46836;48.388;16.210;2022-10-26T08:29:50;11.05;;;7.03;;
45684;SDS011;46836;48.388;16.210;2022-10-26T08:32:17;8.43;;;7.55;;
45684;SDS011;46836;48.388;16.210;2022-10-26T08:34:45;10.00;;;8.60;;
45684;SDS011;46836;48.388;16.210;2022-10-26T08:37:12;12.43;;;9.40;;
45684;SDS011;46836;48.388;16.210;2022-10-26T08:39:39;9.95;;;8.70;;
45684;SDS011;46836;48.388;16.210;2022-10-26T08:42:10;9.60;;;8.60;;
45684;SDS011;46836;48.388;16.210;2022-10-26T08:44:51;10.65;;;9.20;;
45684;SDS011;46836;48.388;16.210;2022-10-26T08:47:25;10.65;;;8.52;;
45684;SDS011;46836;48.388;16.210;2022-10-26T08:50:01;9.10;;;8.20;;
45684;SDS011;46836;48.388;16.210;2022-10-26T08:52:34;8.77;;;7.38;;
45684;SDS011;46836;48.388;16.210;2022-10-26T08:55:13;8.45;;;7.22;;
45684;SDS011;46836;48.388;16.210;2022-10-26T08:57:43;9.20;;;7.63;;
45684;SDS011;46836;48.388;16.210;2022-10-26T09:00:14;9.57;;;7.32;;
45684;SDS011;46836;48.388;16.210;2022-10-26T09:02:49;7.75;;;6.88;;
45684;SDS011;46836;48.388;16.210;2022-10-26T09:05:18;8.38;;;6.53;;
45684;SDS011;46836;48.388;16.210;2022-10-26T09:07:55;6.65;;;6.05;;
45684;SDS011;46836;48.388;16.210;2022-10-26T09:10:38;7.72;;;6.55;;
45684;SDS011;46836;48.388;16.210;2022-10-26T09:13:27;7.45;;;6.47;;
45684;SDS011;46836;48.388;16.210;2022-10-26T09:16:29;8.70;;;6.45;;
45684;SDS011;46836;48.388;16.210;2022-10-26T09:24:54;8.88;;;7.95;;
45684;SDS011;46836;48.388;16.210;2022-10-26T09:27:23;10.68;;;8.30;;
45684;SDS011;46836;48.388;16.210;2022-10-26T09:29:54;8.90;;;7.68;;
45684;SDS011;46836;48.388;16.210;2022-10-26T09:32:25;8.52;;;7.30;;
45684;SDS011;46836;48.388;16.210;2022-10-26T09:35:02;9.65;;;7.60;;
45684;SDS011;46836;48.388;16.210;2022-10-26T09:37:46;9.23;;;7.25;;
45684;SDS011;46836;48.388;16.210;2022-10-26T09:43:19;10.80;;;8.40;;
45684;SDS011;46836;48.388;16.210;2022-10-26T09:45:52;10.43;;;7.50;;
45684;SDS011;46836;48.388;16.210;2022-10-26T09:48:28;8.82;;;8.02;;
45684;SDS011;46836;48.388;16.210;2022-10-26T09:50:57;8.18;;;7.32;;
45684;SDS011;46836;48.388;16.210;2022-10-26T09:53:30;8.45;;;7.53;;
45684;SDS011;46836;48.388;16.210;2022-10-26T09:56:04;9.88;;;7.57;;
45684;SDS011;46836;48.388;16.210;2022-10-26T09:58:39;7.70;;;6.88;;
45684;SDS011;46836;48.388;16.210;2022-10-26T10:04:09;7.45;;;6.10;;
45684;SDS011;46836;48.388;16.210;2022-10-26T10:06:42;8.95;;;7.53;;
45684;SDS011;46836;48.388;16.210;2022-10-26T10:09:19;8.95;;;6.43;;
45684;SDS011;46836;48.388;16.210;2022-10-26T10:11:55;7.85;;;6.60;;
45684;SDS011;46836;48.388;16.210;2022-10-26T10:24:41;10.82;;;7.80;;
45684;SDS011;46836;48.388;16.210;2022-10-26T10:27:23;13.30;;;7.90;;
45684;SDS011;46836;48.388;16.210;2022-10-26T10:29:51;13.40;;;8.95;;
45684;SDS011;46836;48.388;16.210;2022-10-26T10:32:30;14.07;;;11.20;;
45684;SDS011;46836;48.388;16.210;2022-10-26T10:35:05;12.00;;;8.27;;
45684;SDS011;46836;48.388;16.210;2022-10-26T10:37:54;13.63;;;8.55;;
45684;SDS011;46836;48.388;16.210;2022-10-26T10:40:23;14.38;;;8.70;;
45684;SDS011;46836;48.388;16.210;2022-10-26T10:42:54;11.73;;;7.07;;
45684;SDS011;46836;48.388;16.210;2022-10-26T10:45:37;10.80;;;8.20;;
45684;SDS011;46836;48.388;16.210;2022-10-26T10:56:05;10.10;;;7.93;;
45684;SDS011;46836;48.388;16.210;2022-10-26T10:58:50;10.18;;;7.53;;
45684;SDS011;46836;48.388;16.210;2022-10-26T11:01:31;10.20;;;7.88;;
45684;SDS011;46836;48.388;16.210;2022-10-26T11:06:45;11.82;;;8.32;;
45684;SDS011;46836;48.388;16.210;2022-10-26T11:09:15;11.73;;;8.75;;
45684;SDS011;46836;48.388;16.210;2022-10-26T11:11:52;13.18;;;8.90;;
45684;SDS011;46836;48.388;16.210;2022-10-26T11:14:23;11.23;;;8.60;;
45684;SDS011;46836;48.388;16.210;2022-10-26T11:19:54;13.38;;;9.40;;
45684;SDS011;46836;48.388;16.210;2022-10-26T11:22:29;10.38;;;8.98;;
45684;SDS011;46836;48.388;16.210;2022-10-26T11:25:03;11.20;;;8.40;;
45684;SDS011;46836;48.388;16.210;2022-10-26T11:27:54;11.13;;;9.07;;
45684;SDS011;46836;48.388;16.210;2022-10-26T11:30:27;10.82;;;9.15;;
45684;SDS011;46836;48.388;16.210;2022-10-26T11:33:09;11.70;;;8.85;;
45684;SDS011;46836;48.388;16.210;2022-10-26T11:43:47;12.32;;;9.57;;
45684;SDS011;46836;48.388;16.210;2022-10-26T11:52:09;11.00;;;9.15;;
45684;SDS011;46836;48.388;16.210;2022-10-26T11:54:47;12.75;;;9.20;;
45684;SDS011;46836;48.388;16.210;2022-10-26T11:57:20;15.15;;;10.25;;
45684;SDS011;46836;48.388;16.210;2022-10-26T11:59:50;11.20;;;8.85;;
45684;SDS011;46836;48.388;16.210;2022-10-26T12:02:22;10.93;;;8.63;;
45684;SDS011;46836;48.388;16.210;2022-10-26T12:07:50;11.52;;;9.43;;
45684;SDS011;46836;48.388;16.210;2022-10-26T12:10:30;10.05;;;8.32;;
45684;SDS011;46836;48.388;16.210;2022-10-26T12:15:40;12.30;;;9.38;;
45684;SDS011;46836;48.388;16.210;2022-10-26T12:18:40;11.70;;;9.98;;
45684;SDS011;46836;48.388;16.210;2022-10-26T12:21:26;12.80;;;10.07;;
45684;SDS011;46836;48.388;16.210;2022-10-26T12:24:02;13.15;;;10.00;;
45684;SDS011;46836;48.388;16.210;2022-10-26T12:31:52;11.75;;;8.68;;
45684;SDS011;46836;48.388;16.210;2022-10-26T12:34:23;11.75;;;8.73;;
45684;SDS011;46836;48.388;16.210;2022-10-26T12:40:44;11.27;;;9.15;;
45684;SDS011;46836;48.388;16.210;2022-10-26T12:45:42;13.07;;;9.50;;
45684;SDS011;46836;48.388;16.210;2022-10-26T12:48:38;10.02;;;8.80;;
45684;SDS011;46836;48.388;16.210;2022-10-26T12:56:26;12.57;;;9.90;;
45684;SDS011;46836;48.388;16.210;2022-10-26T12:59:06;11.05;;;8.60;;
45684;SDS011;46836;48.388;16.210;2022-10-26T13:01:55;10.05;;;7.72;;
45684;SDS011;46836;48.388;16.210;2022-10-26T13:04:47;13.13;;;10.23;;
45684;SDS011;46836;48.388;16.210;2022-10-26T13:07:39;10.43;;;8.93;;
45684;SDS011;46836;48.388;16.210;2022-10-26T13:12:50;11.05;;;8.95;;
45684;SDS011;46836;48.388;16.210;2022-10-26T13:20:36;14.20;;;9.18;;
45684;SDS011;46836;48.388;16.210;2022-10-26T13:23:24;12.93;;;9.95;;
45684;SDS011;46836;48.388;16.210;2022-10-26T13:26:12;13.10;;;10.10;;
45684;SDS011;46836;48.388;16.210;2022-10-26T13:28:46;10.65;;;8.60;;
45684;SDS011;46836;48.388;16.210;2022-10-26T13:36:33;10.95;;;8.90;;
45684;SDS011;46836;48.388;16.210;2022-10-26T13:39:11;10.60;;;8.90;;
45684;SDS011;46836;48.388;16.210;2022-10-26T13:41:46;12.85;;;8.98;;
45684;SDS011;46836;48.388;16.210;2022-10-26T13:47:29;13.57;;;9.50;;
45684;SDS011;46836;48.388;16.210;2022-10-26T13:50:07;13.18;;;9.95;;
45684;SDS011;46836;48.388;16.210;2022-10-26T13:52:42;13.63;;;10.32;;
45684;SDS011;46836;48.388;16.210;2022-10-26T13:55:19;15.13;;;9.68;;
45684;SDS011;46836;48.388;16.210;2022-10-26T14:00:40;11.75;;;9.82;;
45684;SDS011;46836;48.388;16.210;2022-10-26T14:03:28;12.93;;;10.15;;
45684;SDS011;46836;48.388;16.210;2022-10-26T14:05:56;10.85;;;9.18;;
45684;SDS011;46836;48.388;16.210;2022-10-26T14:08:23;14.15;;;10.27;;
45684;SDS011;46836;48.388;16.210;2022-10-26T14:10:57;14.90;;;11.65;;
45684;SDS011;46836;48.388;16.210;2022-10-26T14:13:25;16.77;;;10.98;;
45684;SDS011;46836;48.388;16.210;2022-10-26T14:15:54;17.70;;;11.65;;
45684;SDS011;46836;48.388;16.210;2022-10-26T14:18:25;17.08;;;12.20;;
45684;SDS011;46836;48.388;16.210;2022-10-26T14:21:03;16.40;;;13.20;;
45684;SDS011;46836;48.388;16.210;2022-10-26T14:26:04;15.52;;;11.77;;
45684;SDS011;46836;48.388;16.210;2022-10-26T14:28:32;19.27;;;13.23;;
45684;SDS011;46836;48.388;16.210;2022-10-26T14:31:12;16.65;;;11.10;;
45684;SDS011;46836;48.388;16.210;2022-10-26T14:33:45;19.90;;;11.30;;
45684;SDS011;46836;48.388;16.210;2022-10-26T14:36:13;17.73;;;11.57;;
45684;SDS011;46836;48.388;16.210;2022-10-26T14:38:43;15.45;;;11.65;;
45684;SDS011;46836;48.388;16.210;2022-10-26T14:41:13;18.08;;;11.13;;
45684;SDS011;46836;48.388;16.210;2022-10-26T14:43:42;16.25;;;10.75;;
45684;SDS011;46836;48.388;16.210;2022-10-26T14:46:14;17.13;;;11.98;;
45684;SDS011;46836;48.388;16.210;2022-10-26T14:48:51;16.52;;;12.27;;
45684;SDS011;46836;48.388;16.210;2022-10-26T14:51:29;15.77;;;11.80;;
45684;SDS011;46836;48.388;16.210;2022-10-26T14:54:01;18.13;;;14.50;;
45684;SDS011;46836;48.388;16.210;2022-10-26T14:56:37;17.17;;;12.45;;
45684;SDS011;46836;48.388;16.210;2022-10-26T14:59:18;15.90;;;11.52;;
45684;SDS011;46836;48.388;16.210;2022-10-26T15:01:53;19.30;;;12.38;;
45684;SDS011;46836;48.388;16.210;2022-10-26T15:04:28;18.38;;;12.25;;
45684;SDS011;46836;48.388;16.210;2022-10-26T15:09:38;16.55;;;11.82;;
45684;SDS011;46836;48.388;16.210;2022-10-26T15:12:51;19.85;;;13.52;;
45684;SDS011;46836;48.388;16.210;2022-10-26T15:17:56;23.55;;;12.45;;
45684;SDS011;46836;48.388;16.210;2022-10-26T15:20:26;15.88;;;12.40;;
45684;SDS011;46836;48.388;16.210;2022-10-26T15:22:58;15.63;;;11.48;;
45684;SDS011;46836;48.388;16.210;2022-10-26T15:25:27;15.57;;;11.88;;
45684;SDS011;46836;48.388;16.210;2022-10-26T15:28:17;16.60;;;11.70;;
45684;SDS011;46836;48.388;16.210;2022-10-26T15:34:21;16.25;;;12.88;;
45684;SDS011;46836;48.388;16.210;2022-10-26T15:36:31;16.63;;;12.57;;
45684;SDS011;46836;48.388;16.210;2022-10-26T15:39:01;15.75;;;11.55;;
45684;SDS011;46836;48.388;16.210;2022-10-26T15:41:29;15.30;;;12.30;;
45684;SDS011;46836;48.388;16.210;2022-10-26T15:43:57;17.58;;;13.40;;
45684;SDS011;46836;48.388;16.210;2022-10-26T15:46:30;17.48;;;13.13;;
45684;SDS011;46836;48.388;16.210;2022-10-26T15:48:59;23.00;;;14.30;;
45684;SDS011;46836;48.388;16.210;2022-10-26T15:51:28;17.70;;;14.05;;
45684;SDS011;46836;48.388;16.210;2022-10-26T15:53:56;20.05;;;13.32;;
45684;SDS011;46836;48.388;16.210;2022-10-26T15:56:24;20.42;;;13.48;;
45684;SDS011;46836;48.388;16.210;2022-10-26T15:58:54;18.30;;;14.07;;
45684;SDS011;46836;48.388;16.210;2022-10-26T16:01:26;18.83;;;13.77;;
45684;SDS011;46836;48.388;16.210;2022-10-26T16:03:54;19.45;;;14.35;;
45684;SDS011;46836;48.388;16.210;2022-10-26T16:06:28;24.27;;;15.32;;
45684;SDS011;46836;48.388;16.210;2022-10-26T16:09:00;18.15;;;14.13;;
45684;SDS011;46836;48.388;16.210;2022-10-26T16:11:29;20.75;;;15.20;;
45684;SDS011;46836;48.388;16.210;2022-10-26T16:13:57;23.45;;;15.13;;
45684;SDS011;46836;48.388;16.210;2022-10-26T16:16:29;24.10;;;15.32;;
45684;SDS011;46836;48.388;16.210;2022-10-26T16:18:56;23.15;;;16.30;;
45684;SDS011;46836;48.388;16.210;2022-10-26T16:21:44;26.63;;;16.83;;
45684;SDS011;46836;48.388;16.210;2022-10-26T16:24:12;23.85;;;15.75;;
45684;SDS011;46836;48.388;16.210;2022-10-26T16:26:39;22.80;;;17.77;;
45684;SDS011;46836;48.388;16.210;2022-10-26T16:29:06;29.83;;;19.38;;
45684;SDS011;46836;48.388;16.210;2022-10-26T16:31:33;23.55;;;16.38;;
45684;SDS011;46836;48.388;16.210;2022-10-26T16:34:00;23.90;;;16.33;;
45684;SDS011;46836;48.388;16.210;2022-10-26T16:36:30;24.05;;;16.23;;
45684;SDS011;46836;48.388;16.210;2022-10-26T16:38:59;24.48;;;15.93;;
45684;SDS011;46836;48.388;16.210;2022-10-26T16:41:32;26.90;;;16.55;;
45684;SDS011;46836;48.388;16.210;2022-10-26T16:44:00;23.83;;;18.42;;
45684;SDS011;46836;48.388;16.210;2022-10-26T16:46:27;25.52;;;17.77;;
45684;SDS011;46836;48.388;16.210;2022-10-26T16:48:54;28.15;;;17.40;;
45684;SDS011;46836;48.388;16.210;2022-10-26T16:51:23;28.48;;;17.42;;
45684;SDS011;46836;48.388;16.210;2022-10-26T16:53:55;31.67;;;18.85;;
45684;SDS011;46836;48.388;16.210;2022-10-26T16:56:24;29.85;;;18.70;;
45684;SDS011;46836;48.388;16.210;2022-10-26T16:58:54;28.95;;;18.90;;
45684;SDS011;46836;48.388;16.210;2022-10-26T17:01:22;27.95;;;18.02;;
45684;SDS011;46836;48.388;16.210;2022-10-26T17:03:50;27.05;;;18.33;;
45684;SDS011;46836;48.388;16.210;2022-10-26T17:06:18;25.65;;;16.88;;
45684;SDS011;46836;48.388;16.210;2022-10-26T17:08:46;30.48;;;19.23;;
45684;SDS011;46836;48.388;16.210;2022-10-26T17:11:15;28.45;;;17.67;;
45684;SDS011;46836;48.388;16.210;2022-10-26T17:13:44;28.58;;;19.10;;
45684;SDS011;46836;48.388;16.210;2022-10-26T17:16:13;30.92;;;18.55;;
45684;SDS011;46836;48.388;16.210;2022-10-26T17:18:43;32.70;;;20.10;;
45684;SDS011;46836;48.388;16.210;2022-10-26T17:21:13;32.53;;;17.75;;
45684;SDS011;46836;48.388;16.210;2022-10-26T17:23:43;34.45;;;18.63;;